Time;durP1;ratioP1;P1;durP2;ratioP2;P2;SDS_P1;SDS_P2;PMS_P1;PMS_P2;Temp;Humidity;BMP_temperature;BMP_pressure;BME280_temperature;BME280_humidity;BME280_pressure;Samples;Min_cycle;Max_cycle;Signal;HPM_P1;HPM_P2
2023/03/17 00:02:08;;;;;;;5.10;3.90;;;;;;;6.04;100.00;98773.72;5048691;28;20204;-80
2023/03/17 00:04:38;;;;;;;5.80;3.93;;;;;;;5.93;100.00;98768.19;5031216;28;20205;-80
2023/03/17 00:07:15;;;;;;;4.60;3.47;;;;;;;5.97;100.00;98775.81;5066231;27;20331;-80
2023/03/17 00:09:43;;;;;;;6.87;4.27;;;;;;;5.93;100.00;98768.19;5127833;27;20255;-80
2023/03/17 00:12:12;;;;;;;5.40;4.00;;;;;;;5.81;100.00;98774.03;5132420;27;20267;-80
2023/03/17 00:14:43;;;;;;;6.33;4.20;;;;;;;5.81;100.00;98768.78;5124640;27;20657;-80
2023/03/17 00:17:14;;;;;;;6.67;4.60;;;;;;;5.94;100.00;98781.25;5135185;27;20198;-80
2023/03/17 00:19:44;;;;;;;5.57;4.10;;;;;;;6.03;100.00;98779.94;5126200;27;20193;-80
2023/03/17 00:22:17;;;;;;;8.57;4.10;;;;;;;5.97;100.00;98775.81;5134642;27;20198;-80
2023/03/17 00:24:45;;;;;;;6.07;4.47;;;;;;;5.95;100.00;98777.69;5128577;27;20270;-80
2023/03/17 00:27:14;;;;;;;5.70;4.10;;;;;;;6.10;100.00;98777.84;5134457;27;20194;-80
2023/03/17 00:29:43;;;;;;;6.17;4.13;;;;;;;6.15;100.00;98774.03;5131618;27;20209;-80
2023/03/17 00:32:17;;;;;;;6.53;4.23;;;;;;;6.12;100.00;98773.34;5134635;27;20194;-80
2023/03/17 00:34:46;;;;;;;4.67;3.80;;;;;;;6.20;100.00;98774.66;5127042;27;20198;-80
2023/03/17 00:37:15;;;;;;;5.60;3.73;;;;;;;6.12;100.00;98773.34;5130455;27;20244;-79
2023/03/17 00:39:43;;;;;;;5.13;4.10;;;;;;;6.10;100.00;98760.28;5134388;27;20222;-80
2023/03/17 00:42:12;;;;;;;6.57;3.63;;;;;;;6.14;100.00;98761.81;5045679;28;20197;-80
2023/03/17 00:44:43;;;;;;;5.63;4.70;;;;;;;6.13;100.00;98754.00;5047399;28;20713;-80
2023/03/17 00:47:12;;;;;;;5.70;4.00;;;;;;;6.16;100.00;98756.47;5047625;28;20718;-80
2023/03/17 00:49:40;;;;;;;8.27;4.43;;;;;;;6.14;100.00;98759.19;5049850;28;20248;-80
2023/03/17 00:52:10;;;;;;;6.00;4.07;;;;;;;6.14;100.00;98763.59;5045396;28;20205;-79
2023/03/17 00:54:38;;;;;;;6.67;4.17;;;;;;;6.08;100.00;98764.78;5044785;28;20213;-80
2023/03/17 00:57:11;;;;;;;4.53;3.47;;;;;;;6.13;100.00;98765.38;5050541;28;20201;-80
2023/03/17 00:59:42;;;;;;;5.43;3.93;;;;;;;6.06;100.00;98765.75;5008385;28;20233;-80
2023/03/17 01:02:11;;;;;;;6.40;4.60;;;;;;;6.01;100.00;98760.75;5006458;28;20238;-79
2023/03/17 01:04:41;;;;;;;8.60;4.83;;;;;;;5.99;100.00;98766.09;5009569;28;20194;-80
2023/03/17 01:07:16;;;;;;;5.63;3.80;;;;;;;6.05;100.00;98750.91;5027916;28;20196;-80
2023/03/17 01:09:45;;;;;;;7.50;4.10;;;;;;;5.97;100.00;98752.16;5039458;28;20196;-80
2023/03/17 01:12:13;;;;;;;6.67;4.03;;;;;;;5.93;100.00;98749.78;5049623;28;20259;-79
2023/03/17 01:14:43;;;;;;;5.37;4.30;;;;;;;6.04;100.00;98750.06;5046752;28;20664;-79
2023/03/17 01:17:17;;;;;;;5.23;4.07;;;;;;;5.93;100.00;98750.63;5057511;27;20217;-80
2023/03/17 01:19:45;;;;;;;6.73;4.20;;;;;;;5.90;100.00;98747.28;5129957;27;20228;-81
2023/03/17 01:22:16;;;;;;;5.23;4.33;;;;;;;5.86;100.00;98753.63;5127331;27;20190;-81
2023/03/17 01:24:46;;;;;;;7.07;4.23;;;;;;;5.98;100.00;98751.25;5066671;28;20211;-81
2023/03/17 01:27:15;;;;;;;4.87;3.93;;;;;;;6.00;100.00;98748.56;5065790;28;20215;-81
2023/03/17 01:29:43;;;;;;;5.20;3.83;;;;;;;6.01;100.00;98743.22;5064144;28;20198;-81
2023/03/17 01:32:12;;;;;;;5.00;3.70;;;;;;;6.07;100.00;98746.44;5063471;28;20195;-80
2023/03/17 01:34:40;;;;;;;6.23;3.80;;;;;;;5.98;100.00;98740.75;5066677;28;20687;-79
2023/03/17 01:37:09;;;;;;;5.90;4.30;;;;;;;6.17;100.00;98731.88;5064101;28;20197;-80
2023/03/17 01:39:38;;;;;;;5.33;4.07;;;;;;;5.99;100.00;98724.03;5064225;28;20235;-81
2023/03/17 01:42:07;;;;;;;4.33;3.93;;;;;;;5.95;100.00;98730.38;5077258;28;20191;-81
2023/03/17 01:44:52;;;;;;;5.07;4.10;;;;;;;5.84;100.00;98718.69;5124676;27;20239;-80
2023/03/17 01:47:23;;;;;;;5.70;4.27;;;;;;;5.88;100.00;98720.22;5132055;27;20309;-81
2023/03/17 01:49:53;;;;;;;5.57;4.00;;;;;;;5.87;100.00;98708.84;5126632;27;20241;-80
2023/03/17 01:52:23;;;;;;;6.70;4.00;;;;;;;5.90;100.00;98718.38;5127552;27;20194;-80
2023/03/17 01:54:58;;;;;;;5.97;3.80;;;;;;;5.81;100.00;98714.44;5123756;27;20194;-81
2023/03/17 01:57:31;;;;;;;6.37;4.10;;;;;;;5.91;100.00;98715.72;5127439;27;20263;-80
2023/03/17 02:00:04;;;;;;;7.23;4.10;;;;;;;5.78;100.00;98709.34;5069944;28;20293;-82
2023/03/17 02:02:36;;;;;;;5.90;4.33;;;;;;;5.73;100.00;98714.84;5061528;28;20246;-81
2023/03/17 02:05:08;;;;;;;4.93;3.90;;;;;;;5.80;100.00;98725.03;5063966;28;20185;-81
2023/03/17 02:07:37;;;;;;;6.63;4.30;;;;;;;5.84;100.00;98721.31;5070002;28;20196;-80
2023/03/17 02:10:09;;;;;;;6.73;4.30;;;;;;;5.59;100.00;98705.94;5061766;28;20196;-81
2023/03/17 02:12:37;;;;;;;6.20;3.87;;;;;;;5.68;100.00;98702.84;5059801;28;20188;-81
2023/03/17 02:15:06;;;;;;;5.97;4.13;;;;;;;5.69;100.00;98699.28;5061251;28;20200;-81
2023/03/17 02:17:35;;;;;;;6.83;4.17;;;;;;;5.65;100.00;98697.78;5006136;28;20254;-81
2023/03/17 02:20:27;;;;;;;6.37;4.37;;;;;;;5.74;100.00;98692.88;5065759;28;20655;-81
2023/03/17 02:22:59;;;;;;;6.00;4.13;;;;;;;5.64;100.00;98689.03;5069539;28;20258;-81
2023/03/17 02:25:30;;;;;;;6.87;4.00;;;;;;;5.55;100.00;98691.28;5109847;27;20200;-80
2023/03/17 02:28:02;;;;;;;5.47;3.77;;;;;;;5.45;100.00;98677.78;5130132;27;20270;-81
2023/03/17 02:30:30;;;;;;;5.33;4.17;;;;;;;5.42;100.00;98676.16;5129327;27;20709;-81
2023/03/17 02:32:59;;;;;;;5.20;4.47;;;;;;;5.37;100.00;98677.31;5134992;27;20198;-81
2023/03/17 02:35:27;;;;;;;5.43;4.50;;;;;;;5.47;100.00;98687.28;5137615;27;20198;-81
2023/03/17 02:37:56;;;;;;;5.97;4.33;;;;;;;5.52;100.00;98688.84;5132815;27;20195;-80
2023/03/17 02:40:26;;;;;;;5.40;4.17;;;;;;;5.53;100.00;98685.28;5131215;27;20677;-81
2023/03/17 02:42:55;;;;;;;5.93;3.90;;;;;;;5.49;100.00;98673.22;5133065;27;20273;-80
2023/03/17 02:45:26;;;;;;;5.93;4.40;;;;;;;5.50;100.00;98672.28;5129742;27;20190;-80
2023/03/17 02:47:56;;;;;;;5.37;4.30;;;;;;;5.35;100.00;98682.66;5125966;27;20186;-80
2023/03/17 02:50:27;;;;;;;5.97;4.20;;;;;;;5.38;100.00;98684.25;5131152;27;20267;-81
2023/03/17 02:52:57;;;;;;;5.23;3.80;;;;;;;5.50;100.00;98681.03;5130224;27;20251;-81
2023/03/17 02:55:27;;;;;;;6.60;4.13;;;;;;;5.37;100.00;98672.91;5136727;27;20190;-80
2023/03/17 02:57:55;;;;;;;7.23;4.43;;;;;;;5.28;100.00;98681.25;5124554;27;20190;-81
2023/03/17 03:00:25;;;;;;;7.07;4.30;;;;;;;5.27;100.00;98686.59;5126026;27;20214;-80
2023/03/17 03:02:53;;;;;;;5.93;4.73;;;;;;;5.21;100.00;98690.38;5130976;27;20198;-80
2023/03/17 03:05:22;;;;;;;7.00;5.00;;;;;;;5.14;100.00;98686.34;5129698;27;20194;-81
2023/03/17 03:07:51;;;;;;;6.37;4.63;;;;;;;5.08;100.00;98678.78;5130592;27;20194;-80
2023/03/17 03:10:20;;;;;;;7.20;5.13;;;;;;;5.15;100.00;98669.69;5135963;27;20198;-80
2023/03/17 03:12:50;;;;;;;5.70;4.07;;;;;;;5.10;100.00;98661.16;5132867;27;20201;-81
2023/03/17 03:15:19;;;;;;;4.70;3.97;;;;;;;5.28;100.00;98655.00;5127926;27;20267;-80
2023/03/17 03:17:48;;;;;;;11.07;4.47;;;;;;;4.97;100.00;98660.09;5130920;27;20190;-80
2023/03/17 03:20:17;;;;;;;5.33;4.23;;;;;;;4.84;100.00;98662.47;5140341;27;20214;-80
2023/03/17 03:22:46;;;;;;;4.77;3.93;;;;;;;4.60;100.00;98661.88;5130052;27;20196;-81
2023/03/17 03:25:14;;;;;;;4.67;4.10;;;;;;;4.62;100.00;98667.88;5145050;27;20191;-81
2023/03/17 03:27:43;;;;;;;6.27;4.30;;;;;;;4.56;100.00;98662.94;5137018;27;20198;-81
2023/03/17 03:30:13;;;;;;;7.00;4.47;;;;;;;4.59;100.00;98674.13;5139502;27;20224;-81
2023/03/17 03:32:41;;;;;;;6.70;4.37;;;;;;;4.51;100.00;98676.25;5140292;27;20190;-82
2023/03/17 03:35:10;;;;;;;6.87;4.33;;;;;;;4.62;100.00;98672.28;5139132;27;20201;-82
2023/03/17 03:37:39;;;;;;;6.70;4.87;;;;;;;4.72;100.00;98668.28;5129739;27;20194;-80
2023/03/17 03:40:08;;;;;;;5.27;4.20;;;;;;;4.77;100.00;98666.31;5128459;27;20271;-80
2023/03/17 03:42:37;;;;;;;6.80;5.00;;;;;;;4.72;100.00;98670.91;5129311;27;20186;-80
2023/03/17 03:45:06;;;;;;;6.10;4.90;;;;;;;4.68;100.00;98667.59;5131966;27;20187;-80
2023/03/17 03:47:36;;;;;;;8.20;4.97;;;;;;;4.73;100.00;98657.75;5125095;27;20198;-81
2023/03/17 03:50:05;;;;;;;6.77;4.50;;;;;;;4.68;100.00;98651.00;5127292;27;20187;-80
2023/03/17 03:52:34;;;;;;;5.30;4.10;;;;;;;4.55;100.00;98662.09;5127418;27;20198;-81
2023/03/17 03:55:02;;;;;;;6.30;4.10;;;;;;;4.60;100.00;98665.34;5129761;27;20256;-80
2023/03/17 03:57:30;;;;;;;6.20;4.70;;;;;;;4.50;100.00;98663.22;5128340;27;20194;-80
2023/03/17 03:59:59;;;;;;;7.17;4.73;;;;;;;4.62;100.00;98664.41;5126970;27;20218;-81
2023/03/17 04:02:27;;;;;;;4.97;4.33;;;;;;;4.71;100.00;98662.19;5133679;27;20306;-80
2023/03/17 04:04:56;;;;;;;7.03;4.30;;;;;;;4.74;100.00;98655.97;5129590;27;20207;-80
2023/03/17 04:07:25;;;;;;;5.43;4.10;;;;;;;4.75;100.00;98655.03;5132030;27;20197;-80
2023/03/17 04:09:53;;;;;;;5.53;4.13;;;;;;;4.67;100.00;98657.19;5127381;27;20235;-81
2023/03/17 04:12:22;;;;;;;5.33;4.10;;;;;;;4.56;100.00;98642.81;5128443;27;20259;-80
2023/03/17 04:14:50;;;;;;;4.80;4.23;;;;;;;4.47;100.00;98648.50;5130345;27;20622;-80
2023/03/17 04:17:20;;;;;;;4.90;4.00;;;;;;;4.40;100.00;98656.72;5129808;27;20191;-80
2023/03/17 04:19:51;;;;;;;5.70;4.77;;;;;;;4.30;100.00;98645.81;5131709;27;20311;-79
2023/03/17 04:22:20;;;;;;;6.47;4.40;;;;;;;4.45;100.00;98637.25;5123951;27;20198;-81
2023/03/17 04:24:51;;;;;;;7.63;4.90;;;;;;;4.41;100.00;98640.06;5135135;27;20665;-80
2023/03/17 04:27:19;;;;;;;6.03;4.17;;;;;;;4.44;100.00;98632.03;5129843;27;20198;-79
2023/03/17 04:29:48;;;;;;;4.87;4.17;;;;;;;4.54;100.00;98633.34;5131296;27;20220;-80
2023/03/17 04:32:17;;;;;;;6.13;4.57;;;;;;;4.44;100.00;98635.53;5129273;27;20305;-80
2023/03/17 04:34:45;;;;;;;6.07;4.10;;;;;;;4.60;100.00;98641.72;5134245;27;20216;-80
2023/03/17 04:37:16;;;;;;;8.77;4.30;;;;;;;4.69;100.00;98637.81;5131400;27;20192;-80
2023/03/17 04:39:46;;;;;;;5.13;4.03;;;;;;;4.54;100.00;98647.28;5129932;27;20218;-80
2023/03/17 04:42:14;;;;;;;6.63;4.10;;;;;;;4.57;100.00;98655.00;5128277;27;20275;-81
2023/03/17 04:44:43;;;;;;;6.03;4.57;;;;;;;4.62;100.00;98654.75;5129849;27;20194;-80
2023/03/17 04:47:11;;;;;;;5.77;4.37;;;;;;;4.65;100.00;98652.00;5133953;27;20194;-80
2023/03/17 04:49:41;;;;;;;5.57;4.30;;;;;;;4.72;100.00;98639.44;5121871;27;20198;-80
2023/03/17 04:52:10;;;;;;;4.90;3.93;;;;;;;4.73;100.00;98636.75;5131134;27;20194;-80
2023/03/17 04:54:38;;;;;;;5.70;4.40;;;;;;;4.80;100.00;98640.75;5124773;27;20194;-80
2023/03/17 04:57:09;;;;;;;5.57;4.07;;;;;;;4.71;100.00;98635.97;5128248;27;20194;-80
2023/03/17 04:59:38;;;;;;;5.57;4.20;;;;;;;4.76;100.00;98627.88;5129306;27;20190;-80
2023/03/17 05:02:07;;;;;;;6.63;3.80;;;;;;;4.79;100.00;98625.09;5050755;28;20193;-80
2023/03/17 05:04:36;;;;;;;5.33;3.73;;;;;;;4.68;100.00;98616.91;5049567;28;20308;-80
2023/03/17 05:07:05;;;;;;;7.00;4.27;;;;;;;4.80;100.00;98616.31;5046939;28;20551;-81
2023/03/17 05:09:34;;;;;;;6.03;4.07;;;;;;;4.87;100.00;98636.06;5046867;28;20647;-80
2023/03/17 05:12:02;;;;;;;9.43;5.67;;;;;;;4.62;100.00;98653.91;5042213;28;20276;-81
2023/03/17 05:14:33;;;;;;;9.77;7.00;;;;;;;4.66;100.00;98660.72;5050778;28;20197;-80
2023/03/17 05:17:01;;;;;;;9.60;5.53;;;;;;;4.52;100.00;98666.63;5050466;28;20209;-80
2023/03/17 05:19:29;;;;;;;6.77;4.87;;;;;;;4.56;100.00;98661.16;5060868;28;20186;-80
2023/03/17 05:21:58;;;;;;;7.57;5.53;;;;;;;4.61;100.00;98660.94;5126046;27;20258;-81
2023/03/17 05:24:26;;;;;;;5.23;4.13;;;;;;;4.68;100.00;98658.88;5128104;27;20198;-80
2023/03/17 05:26:54;;;;;;;5.63;4.30;;;;;;;4.72;100.00;98661.25;5123843;27;20270;-80
2023/03/17 05:29:24;;;;;;;5.90;4.13;;;;;;;4.72;100.00;98655.16;5130553;27;20186;-80
2023/03/17 05:31:54;;;;;;;6.30;4.50;;;;;;;4.68;100.00;98656.25;5129309;27;20598;-80
2023/03/17 05:34:22;;;;;;;6.20;4.37;;;;;;;4.63;100.00;98653.00;5127537;27;20196;-80
2023/03/17 05:36:52;;;;;;;5.23;3.87;;;;;;;4.74;100.00;98648.09;5076511;28;20194;-80
2023/03/17 05:39:21;;;;;;;6.30;5.03;;;;;;;4.68;100.00;98637.91;5126857;27;20218;-80
2023/03/17 05:41:50;;;;;;;6.73;4.40;;;;;;;4.61;100.00;98637.34;5075568;27;20263;-80
2023/03/17 05:44:19;;;;;;;8.97;5.50;;;;;;;4.53;100.00;98648.19;5134432;27;20669;-79
2023/03/17 05:46:47;;;;;;;7.50;5.47;;;;;;;4.53;100.00;98652.59;5123532;27;20252;-79
2023/03/17 05:49:17;;;;;;;6.33;4.37;;;;;;;4.56;100.00;98658.56;5124061;27;20194;-79
2023/03/17 05:51:46;;;;;;;6.53;4.70;;;;;;;4.53;100.00;98657.81;5124363;27;20195;-79
2023/03/17 05:54:14;;;;;;;6.97;5.20;;;;;;;4.48;100.00;98659.84;5123180;27;20190;-80
2023/03/17 05:56:43;;;;;;;5.83;4.47;;;;;;;4.43;100.00;98660.03;5133381;27;20182;-80
2023/03/17 05:59:15;;;;;;;5.93;4.33;;;;;;;4.38;100.00;98659.41;5134027;27;20311;-79
2023/03/17 06:01:44;;;;;;;5.10;4.17;;;;;;;4.42;100.00;98649.63;5132497;27;20221;-79
2023/03/17 06:04:14;;;;;;;6.77;4.27;;;;;;;4.30;100.00;98656.28;5133108;27;20199;-79
2023/03/17 06:06:43;;;;;;;6.97;4.37;;;;;;;4.37;100.00;98656.88;5129648;27;20214;-81
2023/03/17 06:09:12;;;;;;;6.63;4.63;;;;;;;4.26;100.00;98647.75;5113652;27;20201;-79
2023/03/17 06:11:40;;;;;;;7.77;4.57;;;;;;;4.39;100.00;98641.91;5126303;27;20247;-78
2023/03/17 06:14:09;;;;;;;6.03;4.20;;;;;;;4.48;100.00;98644.09;5137120;27;20246;-81
2023/03/17 06:16:37;;;;;;;7.03;4.17;;;;;;;4.52;100.00;98645.63;5131676;27;20195;-81
2023/03/17 06:19:05;;;;;;;8.10;4.23;;;;;;;4.46;100.00;98644.19;5127454;27;20205;-82
2023/03/17 06:21:34;;;;;;;6.90;4.53;;;;;;;4.34;100.00;98643.88;5123213;27;20283;-79
2023/03/17 06:24:04;;;;;;;5.77;4.27;;;;;;;4.47;100.00;98650.28;5133803;27;20194;-79
2023/03/17 06:26:32;;;;;;;6.83;4.50;;;;;;;4.45;100.00;98652.13;5113786;28;20376;-82
2023/03/17 06:29:01;;;;;;;6.13;4.40;;;;;;;4.55;100.00;98651.59;5106422;28;20241;-81
2023/03/17 06:31:29;;;;;;;5.50;4.30;;;;;;;4.55;100.00;98653.38;5111609;28;20191;-79
2023/03/17 06:33:57;;;;;;;5.40;4.40;;;;;;;4.49;100.00;98644.03;5104731;28;20199;-78
2023/03/17 06:36:25;;;;;;;4.27;3.87;;;;;;;4.60;100.00;98648.75;5106818;28;20195;-81
2023/03/17 06:38:54;;;;;;;8.53;4.00;;;;;;;4.53;100.00;98660.44;5110688;28;20230;-81
2023/03/17 06:41:24;;;;;;;5.10;4.10;;;;;;;4.55;100.00;98659.47;5106850;28;20250;-79
2023/03/17 06:43:52;;;;;;;6.70;4.10;;;;;;;4.76;100.00;98652.34;5107739;27;20191;-81
2023/03/17 06:46:20;;;;;;;6.60;4.70;;;;;;;4.76;100.00;98649.72;5129030;27;20195;-79
2023/03/17 06:48:49;;;;;;;5.57;4.20;;;;;;;4.82;100.00;98640.69;5128316;27;20201;-80
2023/03/17 06:51:18;;;;;;;5.67;4.00;;;;;;;4.88;100.00;98656.13;5133701;27;20190;-81
2023/03/17 06:53:47;;;;;;;4.73;4.13;;;;;;;4.81;100.00;98657.34;5133588;27;20198;-82
2023/03/17 06:56:15;;;;;;;5.17;4.27;;;;;;;4.87;100.00;98649.19;5131821;27;20251;-79
2023/03/17 06:59:00;;;;;;;6.23;3.97;;;;;;;4.93;100.00;98646.28;5135388;27;20190;-82
2023/03/17 07:01:30;;;;;;;6.70;4.20;;;;;;;4.86;100.00;98645.72;5131655;27;20225;-81
2023/03/17 07:03:59;;;;;;;5.33;4.03;;;;;;;4.82;100.00;98662.53;5129507;27;20187;-79
2023/03/17 07:06:28;;;;;;;4.80;4.30;;;;;;;5.01;100.00;98661.63;5131113;27;20440;-79
2023/03/17 07:08:58;;;;;;;6.10;4.30;;;;;;;5.11;100.00;98657.63;5130708;27;20197;-81
2023/03/17 07:11:29;;;;;;;6.13;4.37;;;;;;;5.22;100.00;98652.69;5130195;27;20201;-82
2023/03/17 07:14:00;;;;;;;6.90;4.17;;;;;;;5.38;100.00;98653.59;5130441;27;20288;-79
2023/03/17 07:16:29;;;;;;;7.40;4.40;;;;;;;5.33;100.00;98654.78;5130115;27;20198;-81
2023/03/17 07:18:58;;;;;;;8.40;4.10;;;;;;;5.54;100.00;98661.56;5134645;27;20204;-78
2023/03/17 07:21:27;;;;;;;6.63;4.23;;;;;;;5.63;100.00;98647.94;5132476;27;20221;-79
2023/03/17 07:23:55;;;;;;;5.27;3.97;;;;;;;5.70;100.00;98651.09;5132706;27;20653;-80
2023/03/17 07:26:23;;;;;;;6.10;4.37;;;;;;;5.54;100.00;98661.56;5127453;27;20632;-79
2023/03/17 07:28:51;;;;;;;6.10;3.90;;;;;;;5.81;100.00;98654.00;5130844;27;20198;-79
2023/03/17 07:31:22;;;;;;;5.70;4.30;;;;;;;5.79;100.00;98650.63;5132492;27;20190;-81
2023/03/17 07:33:51;;;;;;;6.37;4.20;;;;;;;5.89;100.00;98643.94;5125873;27;20202;-81
2023/03/17 07:36:19;;;;;;;4.60;3.97;;;;;;;6.09;100.00;98645.53;5130996;27;20198;-78
2023/03/17 07:38:47;;;;;;;5.13;4.07;;;;;;;6.05;100.00;98657.13;5129648;27;20198;-78
2023/03/17 07:41:18;;;;;;;4.60;3.67;;;;;;;6.19;100.00;98654.63;5132379;27;20202;-82
2023/03/17 07:43:46;;;;;;;7.30;4.17;;;;;;;6.27;100.00;98651.56;5124386;27;20191;-82
2023/03/17 07:46:18;;;;;;;5.40;4.00;;;;;;;6.41;100.00;98653.44;5128019;27;20273;-81
2023/03/17 07:48:48;;;;;;;4.70;3.53;;;;;;;6.51;100.00;98646.75;5128144;27;20193;-81
2023/03/17 07:51:19;;;;;;;4.87;3.97;;;;;;;6.64;100.00;98637.22;5128848;27;20285;-80
2023/03/17 07:53:48;;;;;;;5.57;3.97;;;;;;;6.55;100.00;98641.19;5135302;27;20239;-81
2023/03/17 07:56:17;;;;;;;5.50;4.00;;;;;;;6.46;100.00;98643.50;5128220;27;20187;-80
2023/03/17 07:58:46;;;;;;;5.70;3.70;;;;;;;6.52;100.00;98633.50;5135350;27;20716;-81
2023/03/17 08:01:14;;;;;;;6.17;3.80;;;;;;;6.52;100.00;98628.22;5126485;27;20621;-81
2023/03/17 08:03:44;;;;;;;5.63;3.93;;;;;;;6.45;100.00;98624.25;5133839;27;20645;-81
2023/03/17 08:06:14;;;;;;;5.13;3.80;;;;;;;6.72;100.00;98624.47;5128242;27;20190;-81
2023/03/17 08:08:43;;;;;;;5.03;3.80;;;;;;;6.90;100.00;98635.75;5123901;27;20226;-79
2023/03/17 08:11:11;;;;;;;4.90;3.80;;;;;;;6.99;100.00;98632.56;5126832;27;20187;-80
2023/03/17 08:13:39;;;;;;;4.70;3.60;;;;;;;7.02;100.00;98635.03;5127202;27;20190;-81
2023/03/17 08:16:08;;;;;;;5.23;3.80;;;;;;;7.22;100.00;98638.28;5129989;27;20698;-81
2023/03/17 08:18:36;;;;;;;5.87;3.80;;;;;;;7.20;100.00;98638.38;5130559;27;20696;-81
2023/03/17 08:21:05;;;;;;;6.33;3.30;;;;;;;7.38;100.00;98632.03;5126842;27;20206;-81
2023/03/17 08:23:36;;;;;;;8.13;3.97;;;;;;;7.54;100.00;98639.03;5128148;27;20214;-81
2023/03/17 08:26:06;;;;;;;6.23;3.73;;;;;;;7.64;100.00;98637.53;5071572;28;20856;-81
2023/03/17 08:28:36;;;;;;;5.87;3.93;;;;;;;7.72;100.00;98636.13;4970849;28;20203;-81
2023/03/17 08:31:09;;;;;;;6.93;3.57;;;;;;;7.68;100.00;98633.75;4968949;28;20207;-81
2023/03/17 08:33:41;;;;;;;4.57;3.50;;;;;;;7.56;100.00;98634.50;4965594;28;20199;-81
2023/03/17 08:36:11;;;;;;;7.27;4.10;;;;;;;7.84;100.00;98623.97;4934326;29;20225;-82
2023/03/17 08:38:42;;;;;;;5.17;3.53;;;;;;;8.07;100.00;98626.97;4932456;29;20249;-81
2023/03/17 08:41:13;;;;;;;5.20;3.67;;;;;;;8.17;100.00;98622.81;4934368;29;20276;-80
2023/03/17 08:43:46;;;;;;;4.57;3.70;;;;;;;8.15;100.00;98630.84;4935158;29;20326;-81
2023/03/17 08:46:18;;;;;;;5.00;3.40;;;;;;;8.27;100.00;98627.41;4957164;28;20253;-81
2023/03/17 08:48:49;;;;;;;5.80;3.77;;;;;;;8.22;100.00;98629.50;5025704;28;20209;-81
2023/03/17 08:51:21;;;;;;;3.87;3.00;;;;;;;8.39;100.00;98625.81;5072281;28;20184;-82
2023/03/17 08:53:54;;;;;;;7.60;3.67;;;;;;;8.53;100.00;98627.59;5095977;27;20194;-81
2023/03/17 08:56:23;;;;;;;5.93;3.67;;;;;;;8.70;100.00;98608.03;5064972;27;20203;-81
2023/03/17 08:58:54;;;;;;;5.27;3.40;;;;;;;8.84;100.00;98610.59;5134140;27;20191;-81
2023/03/17 09:01:23;;;;;;;4.37;3.30;;;;;;;8.99;100.00;98624.59;5134427;27;20217;-81
2023/03/17 09:03:54;;;;;;;4.20;3.27;;;;;;;9.21;100.00;98626.66;5130125;27;20218;-82
2023/03/17 09:06:26;;;;;;;5.10;3.50;;;;;;;9.59;100.00;98643.41;5128053;27;20194;-82
2023/03/17 09:08:59;;;;;;;4.33;3.57;;;;;;;9.62;100.00;98645.00;5126088;27;20326;-82
2023/03/17 09:11:31;;;;;;;3.70;3.23;;;;;;;9.46;98.77;98637.28;5123809;27;20279;-82
2023/03/17 09:14:00;;;;;;;6.20;3.77;;;;;;;9.59;97.64;98638.13;5131097;27;20199;-81
2023/03/17 09:16:32;;;;;;;5.57;3.77;;;;;;;9.49;97.78;98621.19;5047036;28;20198;-80
2023/03/17 09:19:01;;;;;;;4.70;3.47;;;;;;;9.49;100.00;98610.63;5043302;28;20205;-79
2023/03/17 09:21:30;;;;;;;4.80;3.90;;;;;;;9.58;100.00;98604.72;5044485;28;20794;-80
2023/03/17 09:24:00;;;;;;;4.77;3.30;;;;;;;9.74;99.40;98621.19;5047737;28;20213;-79
2023/03/17 09:26:29;;;;;;;4.10;3.50;;;;;;;9.68;98.36;98621.63;5046199;28;20211;-80
2023/03/17 09:28:58;;;;;;;5.77;3.63;;;;;;;9.62;99.23;98619.41;5045208;28;20205;-79
2023/03/17 09:31:26;;;;;;;5.70;3.27;;;;;;;9.72;97.94;98623.09;5045900;28;20193;-80
2023/03/17 09:33:54;;;;;;;6.87;3.30;;;;;;;9.62;97.35;98629.97;5061465;27;20204;-79
2023/03/17 09:36:23;;;;;;;5.80;3.20;;;;;;;9.84;97.08;98624.03;5128052;27;20194;-79
2023/03/17 09:38:51;;;;;;;3.80;3.30;;;;;;;10.01;97.12;98615.78;5131996;27;20230;-79
2023/03/17 09:41:52;;;;;;;4.23;3.43;;;;;;;10.15;93.62;98606.88;5127833;27;20221;-80
2023/03/17 09:44:33;;;;;;;4.80;3.53;;;;;;;9.91;94.12;98600.66;5132198;27;20214;-79
2023/03/17 09:47:12;;;;;;;6.07;3.60;;;;;;;9.94;94.61;98609.25;5132328;27;20191;-79
2023/03/17 09:49:46;;;;;;;4.47;3.53;;;;;;;9.91;93.96;98603.31;5129297;27;20275;-79
2023/03/17 09:52:17;;;;;;;5.33;3.27;;;;;;;10.12;94.19;98608.88;5137895;27;20706;-79
2023/03/17 09:54:48;;;;;;;4.70;3.30;;;;;;;10.19;93.43;98600.41;5130374;27;20205;-79
2023/03/17 09:57:25;;;;;;;5.63;3.50;;;;;;;10.24;93.55;98598.31;5130749;27;20206;-80
2023/03/17 10:00:03;;;;;;;4.07;3.27;;;;;;;10.52;93.81;98591.03;5134816;27;20656;-80
2023/03/17 10:02:33;;;;;;;4.87;3.20;;;;;;;10.62;92.68;98591.22;5128843;27;20281;-79
2023/03/17 10:05:11;;;;;;;5.00;3.70;;;;;;;10.69;91.50;98590.63;5134362;27;20194;-79
2023/03/17 10:07:47;;;;;;;5.27;3.83;;;;;;;10.72;93.52;98590.41;5134086;27;20227;-80
2023/03/17 10:10:20;;;;;;;4.60;3.53;;;;;;;10.89;93.81;98582.03;5125825;27;20235;-80
2023/03/17 10:12:58;;;;;;;6.30;4.17;;;;;;;10.86;94.53;98579.63;5131487;27;20277;-79
2023/03/17 10:15:34;;;;;;;6.63;3.60;;;;;;;10.77;94.28;98575.00;5134167;27;20190;-80
2023/03/17 10:18:10;;;;;;;4.53;3.77;;;;;;;11.07;93.86;98587.78;5131710;27;20227;-82
2023/03/17 10:20:48;;;;;;;6.23;3.70;;;;;;;11.40;94.20;98597.66;5133868;27;20198;-79
2023/03/17 10:23:24;;;;;;;5.73;3.57;;;;;;;11.31;92.60;98586.91;5134336;27;20206;-80
2023/03/17 10:25:53;;;;;;;4.60;3.27;;;;;;;11.59;93.46;98589.13;5129772;27;20209;-80
2023/03/17 10:28:28;;;;;;;6.90;3.97;;;;;;;11.79;92.59;98587.56;5126549;27;20198;-80
2023/03/17 10:31:06;;;;;;;4.60;3.40;;;;;;;11.28;90.23;98580.00;5137004;27;20190;-80
2023/03/17 10:33:35;;;;;;;5.40;3.40;;;;;;;11.72;90.73;98581.88;5126539;27;20194;-79
2023/03/17 10:36:08;;;;;;;7.00;3.80;;;;;;;11.46;89.51;98583.06;5136776;27;20209;-79
2023/03/17 10:38:37;;;;;;;5.90;3.70;;;;;;;11.61;91.54;98579.22;5131533;27;20521;-79
2023/03/17 10:41:13;;;;;;;4.63;3.47;;;;;;;11.72;90.61;98578.38;5126823;27;20198;-79
2023/03/17 10:43:46;;;;;;;4.90;3.80;;;;;;;11.81;88.77;98577.72;5136888;27;20260;-80
2023/03/17 10:46:20;;;;;;;5.37;4.10;;;;;;;11.68;87.43;98575.16;5127937;27;20209;-79
2023/03/17 10:48:56;;;;;;;4.43;3.37;;;;;;;11.96;87.55;98567.69;5128464;27;20247;-80
2023/03/17 10:51:31;;;;;;;5.33;3.80;;;;;;;12.10;88.12;98571.91;5125431;27;20198;-80
2023/03/17 10:54:02;;;;;;;5.07;3.90;;;;;;;12.35;86.53;98568.13;5132412;27;20240;-80
2023/03/17 10:56:36;;;;;;;6.77;3.83;;;;;;;12.36;86.99;98565.34;5129813;27;20721;-80
2023/03/17 10:59:18;;;;;;;4.80;3.53;;;;;;;12.39;83.26;98561.59;5133284;27;20217;-80
2023/03/17 11:01:52;;;;;;;5.73;4.00;;;;;;;12.24;85.17;98561.84;5133216;27;20257;-79
2023/03/17 11:04:28;;;;;;;5.67;3.73;;;;;;;12.39;84.76;98559.78;5130678;27;20225;-80
2023/03/17 11:06:58;;;;;;;7.20;3.73;;;;;;;12.36;83.41;98556.56;5080054;27;20239;-80
2023/03/17 11:09:34;;;;;;;5.73;4.03;;;;;;;12.45;83.74;98554.00;5130302;27;20196;-80
2023/03/17 11:12:04;;;;;;;5.77;4.03;;;;;;;12.42;80.83;98559.53;5133002;27;20191;-80
2023/03/17 11:14:35;;;;;;;6.03;4.33;;;;;;;12.37;81.98;98550.28;5126644;27;20222;-80
2023/03/17 11:17:16;;;;;;;6.30;4.27;;;;;;;12.48;83.43;98548.41;5135595;27;20191;-80
2023/03/17 11:19:54;;;;;;;5.77;3.97;;;;;;;12.45;81.40;98561.97;5127597;27;20198;-79
2023/03/17 11:22:32;;;;;;;5.93;3.83;;;;;;;12.50;82.20;98542.97;5135808;27;20219;-80
2023/03/17 11:25:10;;;;;;;5.93;3.73;;;;;;;12.65;81.53;98546.22;5131541;27;20330;-81
2023/03/17 11:27:48;;;;;;;7.40;4.03;;;;;;;12.43;80.13;98553.25;5128072;27;20246;-81
2023/03/17 11:30:28;;;;;;;6.47;3.67;;;;;;;12.43;80.35;98545.28;5128543;27;20247;-81
2023/03/17 11:33:04;;;;;;;4.87;3.67;;;;;;;12.69;81.39;98548.47;5134635;27;20193;-80
2023/03/17 11:35:47;;;;;;;4.70;3.63;;;;;;;12.59;79.20;98550.19;5135635;27;20212;-80
2023/03/17 11:38:24;;;;;;;5.63;3.53;;;;;;;12.57;78.57;98544.16;5088494;28;20187;-79
2023/03/17 11:41:29;;;;;;;6.23;3.80;;;;;;;12.54;79.38;98550.56;5089484;28;20227;-80
2023/03/17 11:44:17;;;;;;;6.37;4.00;;;;;;;12.85;80.42;98532.09;5086210;28;20215;-80
2023/03/17 11:46:52;;;;;;;4.23;3.70;;;;;;;12.57;82.93;98538.84;5089239;28;20219;-79
2023/03/17 11:49:23;;;;;;;6.40;3.60;;;;;;;13.00;80.19;98535.28;5083638;28;20191;-80
2023/03/17 11:52:00;;;;;;;5.40;3.73;;;;;;;13.20;78.01;98533.63;5088242;28;20223;-79